createdAt,value
2018-09-12T00:00:00.883Z,100337.29
2018-09-12T00:02:30.585Z,100338.93
2018-09-12T00:05:00.513Z,100336.16
2018-09-12T00:07:30.212Z,100331.34
2018-09-12T00:09:59.888Z,100328.47
2018-09-12T00:12:29.623Z,100327.33
2018-09-12T00:14:59.298Z,100323.91
2018-09-12T00:17:29.019Z,100325.89
2018-09-12T00:19:58.697Z,100323.10
2018-09-12T00:22:28.343Z,100328.98
2018-09-12T00:24:58.106Z,100325.13
2018-09-12T00:27:27.752Z,100323.88
2018-09-12T00:29:57.442Z,100325.86
2018-09-12T00:32:27.109Z,100330.05
2018-09-12T00:34:56.797Z,100323.16
2018-09-12T00:37:26.495Z,100323.05
2018-09-12T00:39:56.185Z,100318.27
2018-09-12T00:42:25.964Z,100316.59
2018-09-12T00:44:55.634Z,100315.02
2018-09-12T00:47:25.349Z,100314.59
2018-09-12T00:49:55.026Z,100311.17
2018-09-12T00:52:24.688Z,100311.50
2018-09-12T00:54:54.387Z,100311.41
2018-09-12T00:57:24.049Z,100304.41
2018-09-12T00:59:53.713Z,100300.22
2018-09-12T01:02:23.526Z,100296.06
2018-09-12T01:04:53.239Z,100298.01
2018-09-12T01:07:22.940Z,100303.33
2018-09-12T01:09:52.686Z,100305.12
2018-09-12T01:12:22.409Z,100306.25
2018-09-12T01:14:52.098Z,100303.06
2018-09-12T01:17:21.757Z,100301.70
2018-09-12T01:19:51.548Z,100302.31
2018-09-12T01:22:21.237Z,100293.22
2018-09-12T01:24:50.921Z,100298.44
2018-09-12T01:27:20.641Z,100281.73
2018-09-12T01:29:50.293Z,100287.06
2018-09-12T01:32:19.943Z,100287.70
2018-09-12T01:34:49.633Z,100280.08
2018-09-12T01:37:19.312Z,100282.28
2018-09-12T01:39:49.010Z,100281.86
2018-09-12T01:42:18.671Z,100289.18
2018-09-12T01:44:48.382Z,100277.27
2018-09-12T01:47:18.036Z,100281.11
2018-09-12T01:49:47.689Z,100284.36
2018-09-12T01:52:17.749Z,100280.41
2018-09-12T01:54:47.416Z,100282.58
2018-09-12T01:57:17.105Z,100275.38
2018-09-12T01:59:46.784Z,100270.27
2018-09-12T02:02:16.472Z,100268.09
2018-09-12T02:04:46.172Z,100271.95
2018-09-12T02:07:15.857Z,100267.56
2018-09-12T02:09:45.564Z,100269.84
2018-09-12T02:12:15.265Z,100273.30
2018-09-12T02:14:44.945Z,100273.73
2018-09-12T02:17:14.664Z,100282.46
2018-09-12T02:19:44.336Z,100281.41
2018-09-12T02:22:14.126Z,100270.67
2018-09-12T02:24:43.784Z,100273.38
2018-09-12T02:27:13.497Z,100275.13
2018-09-12T02:29:43.222Z,100272.84
2018-09-12T02:32:12.909Z,100277.99
2018-09-12T02:34:42.593Z,100277.66
2018-09-12T02:37:12.292Z,100276.48
2018-09-12T02:39:41.984Z,100277.08
2018-09-12T02:42:11.334Z,100276.70
2018-09-12T02:44:40.705Z,100275.86
2018-09-12T02:47:15.273Z,100274.28
2018-09-12T02:49:44.652Z,100268.16
2018-09-12T02:52:14.020Z,100262.96
2018-09-12T02:54:43.447Z,100259.73
2018-09-12T02:57:12.931Z,100255.78
2018-09-12T02:59:42.404Z,100257.98
2018-09-12T03:02:12.141Z,100256.00
2018-09-12T03:04:41.576Z,100258.46
2018-09-12T03:07:10.997Z,100261.72
2018-09-12T03:09:40.345Z,100262.64
2018-09-12T03:12:09.716Z,100259.61
2018-09-12T03:14:39.101Z,100259.81
2018-09-12T03:17:08.474Z,100251.08
2018-09-12T03:19:38.262Z,100249.50
2018-09-12T03:22:08.037Z,100250.41
2018-09-12T03:24:37.822Z,100242.20
2018-09-12T03:27:07.579Z,100253.23
2018-09-12T03:29:37.256Z,100251.67
2018-09-12T03:32:07.073Z,100242.95
2018-09-12T03:34:36.754Z,100247.84
2018-09-12T03:37:06.520Z,100249.08
2018-09-12T03:39:36.198Z,100243.69
2018-09-12T03:42:05.908Z,100245.16
2018-09-12T03:44:35.600Z,100243.78
2018-09-12T03:47:05.265Z,100243.47
2018-09-12T03:49:34.955Z,100246.59
2018-09-12T03:52:04.632Z,100247.20
2018-09-12T03:54:34.325Z,100244.61
2018-09-12T03:57:03.988Z,100246.19
2018-09-12T03:59:33.683Z,100240.78
2018-09-12T04:02:03.384Z,100230.94
2018-09-12T04:04:33.065Z,100224.41
2018-09-12T04:07:02.767Z,100228.55
2018-09-12T04:09:32.449Z,100224.48
2018-09-12T04:12:02.149Z,100215.93
2018-09-12T04:14:31.812Z,100214.33
2018-09-12T04:17:02.562Z,100216.20
2018-09-12T04:19:32.420Z,100216.20
2018-09-12T04:22:02.148Z,100216.48
2018-09-12T04:24:32.301Z,100216.16
2018-09-12T04:27:02.014Z,100209.94
2018-09-12T04:29:31.700Z,100209.28
2018-09-12T04:32:01.449Z,100211.38
2018-09-12T04:34:31.124Z,100216.70
2018-09-12T04:37:00.761Z,100207.02
2018-09-12T04:39:30.455Z,100205.45
2018-09-12T04:42:00.183Z,100211.59
2018-09-12T04:44:29.845Z,100215.66
2018-09-12T04:46:59.730Z,100216.70
2018-09-12T04:49:29.565Z,100211.40
2018-09-12T04:51:59.224Z,100209.10
2018-09-12T04:54:28.873Z,100211.38
2018-09-12T04:56:58.584Z,100204.81
2018-09-12T04:59:28.252Z,100203.86
2018-09-12T05:01:57.920Z,100201.16
2018-09-12T05:04:27.654Z,100204.08
2018-09-12T05:06:57.329Z,100203.03
2018-09-12T05:09:27.038Z,100203.86
2018-09-12T05:11:56.750Z,100208.25
2018-09-12T05:14:26.448Z,100206.41
2018-09-12T05:16:56.157Z,100205.44
2018-09-12T05:19:25.858Z,100205.96
2018-09-12T05:21:55.594Z,100210.56
2018-09-12T05:24:25.306Z,100205.33
2018-09-12T05:26:55.007Z,100214.91
2018-09-12T05:29:24.718Z,100216.70
2018-09-12T05:31:54.418Z,100215.46
2018-09-12T05:34:24.126Z,100207.33
2018-09-12T05:36:53.808Z,100206.23
2018-09-12T05:39:23.560Z,100210.41
2018-09-12T05:41:53.287Z,100216.26
2018-09-12T05:44:22.980Z,100219.29
2018-09-12T05:46:52.694Z,100222.61
2018-09-12T05:49:22.393Z,100219.17
2018-09-12T05:51:52.136Z,100222.61
2018-09-12T05:54:21.840Z,100221.24
2018-09-12T05:56:51.600Z,100228.88
2018-09-12T05:59:21.258Z,100233.36
2018-09-12T06:01:50.961Z,100229.48
2018-09-12T06:04:20.703Z,100232.80
2018-09-12T06:06:50.448Z,100233.64
2018-09-12T06:09:20.136Z,100234.45
2018-09-12T06:11:49.822Z,100236.00
2018-09-12T06:14:19.894Z,100237.53
2018-09-12T06:16:49.665Z,100243.23
2018-09-12T06:19:19.380Z,100240.77
2018-09-12T06:21:49.109Z,100239.45
2018-09-12T06:24:18.808Z,100243.30
2018-09-12T06:26:48.521Z,100246.52
2018-09-12T06:29:18.341Z,100239.92
2018-09-12T06:31:48.015Z,100241.59
2018-09-12T06:34:17.704Z,100235.25
2018-09-12T06:36:47.456Z,100241.53
2018-09-12T06:39:17.187Z,100247.56
2018-09-12T06:41:46.912Z,100246.23
2018-09-12T06:44:16.606Z,100248.10
2018-09-12T06:46:46.325Z,100247.66
2018-09-12T06:49:22.479Z,100251.95
2018-09-12T06:51:52.657Z,100244.72
2018-09-12T06:54:22.354Z,100243.68
2018-09-12T06:56:52.177Z,100248.67
2018-09-12T06:59:21.912Z,100256.69
2018-09-12T07:01:51.632Z,100253.94
2018-09-12T07:04:24.422Z,100252.45
2018-09-12T07:06:54.111Z,100254.30
2018-09-12T07:09:23.854Z,100243.29
2018-09-12T07:11:53.567Z,100243.52
2018-09-12T07:14:23.348Z,100245.73
2018-09-12T07:16:53.064Z,100243.93
2018-09-12T07:19:23.235Z,100241.61
2018-09-12T07:21:53.096Z,100250.94
2018-09-12T07:24:22.844Z,100245.50
2018-09-12T07:26:52.585Z,100247.66
2018-09-12T07:29:22.296Z,100255.14
2018-09-12T07:31:51.973Z,100253.33
2018-09-12T07:34:21.696Z,100258.58
2018-09-12T07:36:51.640Z,100260.87
2018-09-12T07:39:21.337Z,100261.80
2018-09-12T07:41:51.154Z,100258.70
2018-09-12T07:44:20.877Z,100266.00
2018-09-12T07:46:50.588Z,100265.86
2018-09-12T07:49:20.288Z,100256.61
2018-09-12T07:51:49.984Z,100260.42
2018-09-12T07:54:19.676Z,100268.13
2018-09-12T07:56:49.361Z,100262.22
2018-09-12T07:59:19.076Z,100261.09
2018-09-12T08:01:48.781Z,100261.39
2018-09-12T08:04:18.510Z,100261.78
2018-09-12T08:06:48.285Z,100264.22
2018-09-12T08:09:17.985Z,100259.58
2018-09-12T08:11:47.709Z,100265.80
2018-09-12T08:14:17.451Z,100265.17
2018-09-12T08:16:47.151Z,100264.45
2018-09-12T08:19:16.849Z,100265.18
2018-09-12T08:21:46.577Z,100266.41
2018-09-12T08:24:16.297Z,100266.03
2018-09-12T08:26:46.016Z,100264.33
2018-09-12T08:29:15.723Z,100269.43
2018-09-12T08:31:45.497Z,100266.45
2018-09-12T08:34:15.192Z,100263.55
2018-09-12T08:36:44.890Z,100263.43
2018-09-12T08:39:14.593Z,100266.97
2018-09-12T08:41:44.333Z,100267.22
2018-09-12T08:44:14.012Z,100261.87
2018-09-12T08:46:43.725Z,100262.30
2018-09-12T08:49:13.477Z,100258.97
2018-09-12T08:51:43.186Z,100258.66
2018-09-12T08:54:12.867Z,100261.03
2018-09-12T08:56:42.606Z,100263.67
2018-09-12T08:59:12.293Z,100253.75
2018-09-12T09:01:42.052Z,100267.94
2018-09-12T09:04:11.813Z,100260.59
2018-09-12T09:06:41.458Z,100256.80
2018-09-12T09:09:12.257Z,100269.46
2018-09-12T09:11:41.953Z,100266.61
2018-09-12T09:14:11.751Z,100260.84
2018-09-12T09:16:41.432Z,100264.02
2018-09-12T09:19:11.159Z,100267.72
2018-09-12T09:21:40.866Z,100256.43
2018-09-12T09:24:10.553Z,100257.52
2018-09-12T09:26:40.280Z,100255.66
2018-09-12T09:29:09.986Z,100256.45
2018-09-12T09:31:39.681Z,100254.53
2018-09-12T09:34:09.404Z,100259.34
2018-09-12T09:36:39.094Z,100259.71
2018-09-12T09:39:10.973Z,100255.76
2018-09-12T09:41:40.986Z,100256.06
2018-09-12T09:44:10.900Z,100251.31
2018-09-12T09:46:40.745Z,100261.41
2018-09-12T09:49:10.493Z,100260.78
2018-09-12T09:51:40.186Z,100253.87
2018-09-12T09:54:09.879Z,100252.66
2018-09-12T09:56:39.593Z,100254.03
2018-09-12T09:59:09.264Z,100256.86
2018-09-12T10:01:44.189Z,100254.91
2018-09-12T10:04:18.928Z,100251.03
2018-09-12T10:06:53.733Z,100242.23
2018-09-12T10:09:28.556Z,100247.63
2018-09-12T10:11:58.450Z,100246.50
2018-09-12T10:14:28.365Z,100247.89
2018-09-12T10:16:58.096Z,100244.70
2018-09-12T10:19:27.837Z,100248.16
2018-09-12T10:21:57.736Z,100251.95
2018-09-12T10:24:27.521Z,100251.61
2018-09-12T10:26:57.632Z,100251.70
2018-09-12T10:29:27.331Z,100249.88
2018-09-12T10:31:57.021Z,100252.39
2018-09-12T10:34:26.731Z,100252.74
2018-09-12T10:36:56.460Z,100253.59
2018-09-12T10:39:26.204Z,100250.56
2018-09-12T10:41:55.986Z,100267.18
2018-09-12T10:44:25.711Z,100258.93
2018-09-12T10:46:55.418Z,100261.61
2018-09-12T10:49:25.134Z,100260.14
2018-09-12T10:51:54.837Z,100256.34
2018-09-12T10:54:24.595Z,100252.08
2018-09-12T10:56:54.304Z,100251.44
2018-09-12T10:59:24.015Z,100251.63
2018-09-12T11:01:53.745Z,100252.77
2018-09-12T11:04:23.463Z,100248.20
2018-09-12T11:06:53.607Z,100238.95
2018-09-12T11:09:23.301Z,100242.80
2018-09-12T11:11:53.095Z,100237.25
2018-09-12T11:14:22.791Z,100243.47
2018-09-12T11:16:52.509Z,100243.23
2018-09-12T11:19:22.248Z,100242.21
2018-09-12T11:21:52.080Z,100243.82
2018-09-12T11:24:21.776Z,100244.91
2018-09-12T11:26:51.476Z,100243.47
2018-09-12T11:29:21.264Z,100244.84
2018-09-12T11:31:50.964Z,100243.05
2018-09-12T11:34:20.766Z,100237.37
2018-09-12T11:36:50.448Z,100233.54
2018-09-12T11:39:20.174Z,100238.52
2018-09-12T11:41:49.867Z,100229.20
2018-09-12T11:44:19.565Z,100239.64
2018-09-12T11:46:49.268Z,100241.20
2018-09-12T11:49:18.961Z,100236.59
2018-09-12T11:51:48.704Z,100227.22
2018-09-12T11:54:18.428Z,100235.59
2018-09-12T11:56:48.193Z,100226.98
2018-09-12T11:59:17.896Z,100225.45
2018-09-12T12:01:47.643Z,100243.63
2018-09-12T12:04:17.947Z,100251.02
2018-09-12T12:06:47.757Z,100248.36
2018-09-12T12:09:17.514Z,100253.57
2018-09-12T12:11:47.233Z,100250.25
2018-09-12T12:14:16.932Z,100255.29
2018-09-12T12:16:46.737Z,100263.61
2018-09-12T12:19:16.396Z,100265.73
2018-09-12T12:21:46.144Z,100259.83
2018-09-12T12:24:15.847Z,100264.47
2018-09-12T12:26:45.613Z,100262.89
2018-09-12T12:29:15.584Z,100264.89
2018-09-12T12:31:45.309Z,100267.87
2018-09-12T12:34:16.060Z,100270.59
2018-09-12T12:36:45.785Z,100272.70
2018-09-12T12:39:15.518Z,100269.71
2018-09-12T12:41:45.261Z,100270.50
2018-09-12T12:44:14.977Z,100262.75
2018-09-12T12:46:44.698Z,100261.13
2018-09-12T12:49:14.395Z,100266.88
2018-09-12T12:51:44.119Z,100283.39
2018-09-12T12:54:13.810Z,100267.45
2018-09-12T12:56:43.501Z,100276.38
2018-09-12T12:59:13.277Z,100286.62
2018-09-12T13:01:42.993Z,100283.77
2018-09-12T13:04:12.687Z,100287.31
2018-09-12T13:06:42.409Z,100291.19
2018-09-12T13:09:12.097Z,100287.72
2018-09-12T13:11:41.846Z,100295.64
2018-09-12T13:14:11.574Z,100296.12
2018-09-12T13:16:41.312Z,100298.14
2018-09-12T13:19:11.000Z,100295.58
2018-09-12T13:21:40.807Z,100292.34
2018-09-12T13:24:10.423Z,100309.59
2018-09-12T13:26:40.101Z,100310.45
2018-09-12T13:29:09.907Z,100313.14
2018-09-12T13:31:39.599Z,100320.12
2018-09-12T13:34:09.389Z,100317.55
2018-09-12T13:36:39.099Z,100317.05
2018-09-12T13:39:15.730Z,100316.34
2018-09-12T13:41:45.444Z,100323.63
2018-09-12T13:44:15.498Z,100327.02
2018-09-12T13:46:45.197Z,100338.63
2018-09-12T13:49:14.889Z,100341.94
2018-09-12T13:51:44.628Z,100341.00
2018-09-12T13:54:14.313Z,100345.34
2018-09-12T13:56:44.135Z,100351.55
2018-09-12T13:59:13.773Z,100348.97
2018-09-12T14:01:43.510Z,100363.06
2018-09-12T14:04:13.208Z,100368.31
2018-09-12T14:06:42.941Z,100376.99
2018-09-12T14:09:12.820Z,100366.86
2018-09-12T14:11:42.591Z,100379.26
2018-09-12T14:14:12.355Z,100387.23
2018-09-12T14:16:42.101Z,100394.91
2018-09-12T14:19:11.800Z,100390.30
2018-09-12T14:21:41.521Z,100398.25
2018-09-12T14:24:11.193Z,100408.78
2018-09-12T14:26:40.882Z,100406.42
2018-09-12T14:29:10.630Z,100413.04
2018-09-12T14:31:40.324Z,100412.89
2018-09-12T14:34:10.198Z,100418.17
2018-09-12T14:36:39.889Z,100417.68
2018-09-12T14:39:10.407Z,100413.95
2018-09-12T14:41:40.324Z,100422.12
2018-09-12T14:44:10.045Z,100417.88
2018-09-12T14:46:39.744Z,100424.25
2018-09-12T14:49:09.434Z,100426.51
2018-09-12T14:51:39.144Z,100418.45
2018-09-12T14:54:08.851Z,100425.62
2018-09-12T14:56:38.540Z,100416.09
2018-09-12T14:59:08.504Z,100427.53
2018-09-12T15:01:38.188Z,100430.08
2018-09-12T15:04:07.913Z,100430.81
2018-09-12T15:06:37.647Z,100427.41
2018-09-12T15:09:10.275Z,100433.58
2018-09-12T15:11:40.014Z,100442.37
2018-09-12T15:14:10.112Z,100445.38
2018-09-12T15:16:40.030Z,100440.41
2018-09-12T15:19:09.792Z,100447.47
2018-09-12T15:21:39.524Z,100453.13
2018-09-12T15:24:09.257Z,100452.20
2018-09-12T15:26:38.961Z,100445.53
2018-09-12T15:29:08.817Z,100458.83
2018-09-12T15:31:38.512Z,100454.99
2018-09-12T15:34:08.244Z,100457.61
2018-09-12T15:36:37.950Z,100456.05
2018-09-12T15:39:09.912Z,100454.48
2018-09-12T15:41:39.722Z,100456.78
2018-09-12T15:44:15.967Z,100455.99
2018-09-12T15:46:45.677Z,100463.83
2018-09-12T15:49:15.422Z,100467.48
2018-09-12T15:51:45.186Z,100462.87
2018-09-12T15:54:14.876Z,100461.22
2018-09-12T15:56:44.623Z,100460.07
2018-09-12T15:59:14.348Z,100465.91
2018-09-12T16:01:44.077Z,100466.66
2018-09-12T16:04:13.771Z,100455.48
2018-09-12T16:06:43.505Z,100459.84
2018-09-12T16:09:13.292Z,100456.19
2018-09-12T16:11:42.969Z,100464.86
2018-09-12T16:14:12.725Z,100463.55
2018-09-12T16:16:42.517Z,100465.00
2018-09-12T16:19:12.466Z,100472.91
2018-09-12T16:21:42.177Z,100477.72
2018-09-12T16:24:11.878Z,100473.12
2018-09-12T16:26:41.600Z,100473.31
2018-09-12T16:29:11.377Z,100468.82
2018-09-12T16:31:41.113Z,100471.33
2018-09-12T16:34:10.803Z,100464.63
2018-09-12T16:36:40.642Z,100479.22
2018-09-12T16:39:12.205Z,100484.26
2018-09-12T16:41:42.251Z,100485.41
2018-09-12T16:44:11.969Z,100484.27
2018-09-12T16:46:41.690Z,100486.55
2018-09-12T16:49:11.397Z,100487.80
2018-09-12T16:51:41.141Z,100504.16
2018-09-12T16:54:12.335Z,100496.71
2018-09-12T16:56:42.133Z,100486.34
2018-09-12T16:59:11.853Z,100498.52
2018-09-12T17:01:41.556Z,100500.47
2018-09-12T17:04:11.278Z,100494.89
2018-09-12T17:06:40.978Z,100497.02
2018-09-12T17:09:11.661Z,100504.15
2018-09-12T17:11:41.352Z,100502.70
2018-09-12T17:14:11.183Z,100500.11
2018-09-12T17:16:40.817Z,100493.17
2018-09-12T17:19:10.522Z,100503.07
2018-09-12T17:21:40.244Z,100504.27
2018-09-12T17:24:09.976Z,100498.68
2018-09-12T17:26:39.723Z,100500.25
2018-09-12T17:29:09.444Z,100502.19
2018-09-12T17:31:39.147Z,100509.05
2018-09-12T17:34:08.898Z,100515.98
2018-09-12T17:36:38.649Z,100507.89
2018-09-12T17:39:09.553Z,100515.23
2018-09-12T17:41:39.402Z,100524.31
2018-09-12T17:44:09.186Z,100523.86
2018-09-12T17:46:38.905Z,100522.66
2018-09-12T17:49:08.656Z,100523.56
2018-09-12T17:51:38.398Z,100524.09
2018-09-12T17:54:08.087Z,100525.91
2018-09-12T17:56:37.880Z,100527.01
2018-09-12T17:59:07.699Z,100521.72
2018-09-12T18:01:37.454Z,100528.86
2018-09-12T18:04:07.209Z,100524.25
2018-09-12T18:06:36.938Z,100527.08
2018-09-12T18:09:08.695Z,100523.27
2018-09-12T18:11:38.425Z,100531.45
2018-09-12T18:14:08.156Z,100532.05
2018-09-12T18:16:37.915Z,100530.04
2018-09-12T18:19:07.634Z,100528.89
2018-09-12T18:21:37.442Z,100529.53
2018-09-12T18:24:07.340Z,100539.41
2018-09-12T18:26:37.100Z,100539.01
2018-09-12T18:29:06.924Z,100536.08
2018-09-12T18:31:36.699Z,100535.16
2018-09-12T18:34:06.589Z,100537.55
2018-09-12T18:36:36.304Z,100543.98
2018-09-12T18:39:08.717Z,100550.30
2018-09-12T18:41:38.495Z,100553.91
2018-09-12T18:44:08.659Z,100568.17
2018-09-12T18:46:38.368Z,100566.62
2018-09-12T18:49:08.120Z,100568.94
2018-09-12T18:51:37.820Z,100573.20
2018-09-12T18:54:07.679Z,100563.06
2018-09-12T18:56:37.630Z,100568.12
2018-09-12T18:59:07.343Z,100565.15
2018-09-12T19:01:37.108Z,100564.42
2018-09-12T19:04:06.829Z,100568.75
2018-09-12T19:06:36.632Z,100575.14
2018-09-12T19:09:08.844Z,100573.58
2018-09-12T19:11:38.541Z,100571.34
2018-09-12T19:14:08.357Z,100569.73
2018-09-12T19:16:38.056Z,100567.14
2018-09-12T19:19:07.808Z,100570.15
2018-09-12T19:21:37.519Z,100564.58
2018-09-12T19:24:07.653Z,100555.53
2018-09-12T19:26:37.417Z,100560.47
2018-09-12T19:29:07.121Z,100561.61
2018-09-12T19:31:36.920Z,100574.56
2018-09-12T19:34:06.636Z,100574.36
2018-09-12T19:36:36.324Z,100578.75
2018-09-12T19:39:07.744Z,100580.21
2018-09-12T19:41:37.544Z,100581.27
2018-09-12T19:44:07.258Z,100586.59
2018-09-12T19:46:36.944Z,100581.53
2018-09-12T19:49:06.705Z,100579.83
2018-09-12T19:51:36.412Z,100578.09
2018-09-12T19:54:06.169Z,100577.81
2018-09-12T19:56:35.924Z,100578.64
2018-09-12T19:59:05.652Z,100583.96
2018-09-12T20:01:35.414Z,100589.89
2018-09-12T20:04:05.221Z,100590.03
2018-09-12T20:06:34.925Z,100587.98
2018-09-12T20:09:06.370Z,100590.91
2018-09-12T20:11:36.077Z,100589.09
2018-09-12T20:14:05.852Z,100596.23
2018-09-12T20:16:35.874Z,100593.39
2018-09-12T20:19:05.637Z,100599.32
2018-09-12T20:21:35.478Z,100597.25
2018-09-12T20:24:05.198Z,100593.68
2018-09-12T20:26:35.265Z,100596.09
2018-09-12T20:29:04.988Z,100603.39
2018-09-12T20:31:34.685Z,100600.39
2018-09-12T20:34:04.440Z,100607.25
2018-09-12T20:36:34.131Z,100611.25
2018-09-12T20:39:03.992Z,100602.30
2018-09-12T20:41:33.657Z,100599.15
2018-09-12T20:44:03.376Z,100593.37
2018-09-12T20:46:33.055Z,100605.75
2018-09-12T20:49:02.857Z,100618.40
2018-09-12T20:51:32.562Z,100614.05
2018-09-12T20:54:02.311Z,100608.84
2018-09-12T20:56:32.012Z,100611.09
2018-09-12T20:59:01.701Z,100614.77
2018-09-12T21:01:31.430Z,100621.14
2018-09-12T21:04:01.127Z,100617.69
2018-09-12T21:06:30.800Z,100623.58
2018-09-12T21:09:00.561Z,100619.49
2018-09-12T21:11:30.296Z,100616.91
2018-09-12T21:13:59.979Z,100619.15
2018-09-12T21:16:29.692Z,100611.73
2018-09-12T21:18:59.378Z,100608.88
2018-09-12T21:21:29.079Z,100613.94
2018-09-12T21:23:58.753Z,100614.62
2018-09-12T21:26:28.788Z,100622.86
2018-09-12T21:28:58.532Z,100617.31
2018-09-12T21:31:28.247Z,100615.41
2018-09-12T21:33:57.953Z,100615.63
2018-09-12T21:36:27.651Z,100608.54
2018-09-12T21:38:57.333Z,100604.53
2018-09-12T21:41:27.120Z,100605.02
2018-09-12T21:43:56.808Z,100607.05
2018-09-12T21:46:26.485Z,100601.26
2018-09-12T21:48:56.207Z,100596.38
2018-09-12T21:51:25.888Z,100594.51
2018-09-12T21:53:55.588Z,100590.45
2018-09-12T21:56:25.313Z,100584.91
2018-09-12T21:58:54.987Z,100587.42
2018-09-12T22:01:25.521Z,100585.06
2018-09-12T22:03:55.489Z,100592.14
2018-09-12T22:06:25.219Z,100586.36
2018-09-12T22:08:54.898Z,100590.27
2018-09-12T22:11:24.576Z,100587.72
2018-09-12T22:13:54.312Z,100588.39
2018-09-12T22:16:23.975Z,100585.88
2018-09-12T22:18:53.669Z,100576.09
2018-09-12T22:21:23.407Z,100582.99
2018-09-12T22:23:53.146Z,100586.89
2018-09-12T22:26:22.832Z,100586.78
2018-09-12T22:28:52.526Z,100592.82
2018-09-12T22:31:22.220Z,100593.16
2018-09-12T22:33:51.997Z,100589.11
2018-09-12T22:36:21.691Z,100583.03
2018-09-12T22:38:51.356Z,100587.76
2018-09-12T22:41:21.055Z,100582.31
2018-09-12T22:43:50.796Z,100582.46
2018-09-12T22:46:20.479Z,100573.16
2018-09-12T22:48:50.176Z,100578.22
2018-09-12T22:51:19.870Z,100573.34
2018-09-12T22:53:49.537Z,100586.36
2018-09-12T22:56:19.257Z,100597.50
2018-09-12T22:58:48.921Z,100598.56
2018-09-12T23:01:19.697Z,100591.62
2018-09-12T23:03:49.373Z,100597.17
2018-09-12T23:06:19.065Z,100598.19
2018-09-12T23:08:48.846Z,100603.09
2018-09-12T23:11:18.509Z,100599.20
2018-09-12T23:13:48.212Z,100597.02
2018-09-12T23:16:17.880Z,100598.38
2018-09-12T23:18:47.565Z,100597.84
2018-09-12T23:21:17.281Z,100597.73
2018-09-12T23:23:46.941Z,100594.21
2018-09-12T23:26:16.603Z,100597.33
2018-09-12T23:28:46.286Z,100602.73
2018-09-12T23:31:15.929Z,100604.49
2018-09-12T23:33:45.612Z,100600.37
2018-09-12T23:36:15.280Z,100588.55
2018-09-12T23:38:44.916Z,100590.28
2018-09-12T23:41:14.576Z,100598.42
2018-09-12T23:43:44.256Z,100608.32
2018-09-12T23:46:13.906Z,100612.03
2018-09-12T23:48:43.576Z,100598.83
2018-09-12T23:51:13.285Z,100600.59
2018-09-12T23:53:42.963Z,100610.41
2018-09-12T23:56:12.612Z,100606.67
2018-09-12T23:58:42.334Z,100609.38
